sensor_id;sensor_type;location;lat;lon;timestamp;P1;durP1;ratioP1;P2;durP2;ratioP2
58842;SDS011;44614;54.356;10.100;2023-03-14T00:01:37;9.00;;;2.05;;
58842;SDS011;44614;54.356;10.100;2023-03-14T00:04:06;12.25;;;2.20;;
58842;SDS011;44614;54.356;10.100;2023-03-14T00:06:31;8.95;;;2.00;;
58842;SDS011;44614;54.356;10.100;2023-03-14T00:08:56;9.57;;;2.63;;
58842;SDS011;44614;54.356;10.100;2023-03-14T00:11:22;10.98;;;2.38;;
58842;SDS011;44614;54.356;10.100;2023-03-14T00:13:48;8.38;;;2.40;;
58842;SDS011;44614;54.356;10.100;2023-03-14T00:16:13;11.25;;;1.98;;
58842;SDS011;44614;54.356;10.100;2023-03-14T00:18:39;13.98;;;2.58;;
58842;SDS011;44614;54.356;10.100;2023-03-14T00:21:05;15.45;;;2.38;;
58842;SDS011;44614;54.356;10.100;2023-03-14T00:23:33;8.38;;;2.22;;
58842;SDS011;44614;54.356;10.100;2023-03-14T00:26:00;7.13;;;2.55;;
58842;SDS011;44614;54.356;10.100;2023-03-14T00:28:26;8.88;;;2.63;;
58842;SDS011;44614;54.356;10.100;2023-03-14T00:30:51;5.63;;;3.53;;
58842;SDS011;44614;54.356;10.100;2023-03-14T00:33:17;11.50;;;2.75;;
58842;SDS011;44614;54.356;10.100;2023-03-14T00:35:42;9.27;;;2.40;;
58842;SDS011;44614;54.356;10.100;2023-03-14T00:38:07;15.50;;;3.83;;
58842;SDS011;44614;54.356;10.100;2023-03-14T00:40:33;11.63;;;2.08;;
58842;SDS011;44614;54.356;10.100;2023-03-14T00:42:58;13.83;;;1.60;;
58842;SDS011;44614;54.356;10.100;2023-03-14T00:45:23;13.30;;;2.55;;
58842;SDS011;44614;54.356;10.100;2023-03-14T00:47:49;5.65;;;2.47;;
58842;SDS011;44614;54.356;10.100;2023-03-14T00:50:14;15.30;;;3.20;;
58842;SDS011;44614;54.356;10.100;2023-03-14T00:52:39;5.03;;;1.98;;
58842;SDS011;44614;54.356;10.100;2023-03-14T00:55:05;8.43;;;3.05;;
58842;SDS011;44614;54.356;10.100;2023-03-14T00:57:30;9.73;;;2.47;;
58842;SDS011;44614;54.356;10.100;2023-03-14T00:59:56;11.50;;;2.65;;
58842;SDS011;44614;54.356;10.100;2023-03-14T01:02:21;14.07;;;2.30;;
58842;SDS011;44614;54.356;10.100;2023-03-14T01:04:49;9.20;;;1.73;;
58842;SDS011;44614;54.356;10.100;2023-03-14T01:07:15;7.75;;;1.75;;
58842;SDS011;44614;54.356;10.100;2023-03-14T01:09:41;14.43;;;1.98;;
58842;SDS011;44614;54.356;10.100;2023-03-14T01:12:06;12.07;;;2.60;;
58842;SDS011;44614;54.356;10.100;2023-03-14T01:14:31;10.90;;;1.88;;
58842;SDS011;44614;54.356;10.100;2023-03-14T01:16:57;16.50;;;2.42;;
58842;SDS011;44614;54.356;10.100;2023-03-14T01:19:26;7.90;;;2.13;;
58842;SDS011;44614;54.356;10.100;2023-03-14T01:21:54;13.60;;;2.20;;
58842;SDS011;44614;54.356;10.100;2023-03-14T01:24:20;7.85;;;1.60;;
58842;SDS011;44614;54.356;10.100;2023-03-14T01:26:45;12.93;;;2.25;;
58842;SDS011;44614;54.356;10.100;2023-03-14T01:29:11;13.68;;;2.72;;
58842;SDS011;44614;54.356;10.100;2023-03-14T01:31:37;13.82;;;1.95;;
58842;SDS011;44614;54.356;10.100;2023-03-14T01:34:02;7.72;;;2.47;;
58842;SDS011;44614;54.356;10.100;2023-03-14T01:36:27;14.82;;;2.83;;
58842;SDS011;44614;54.356;10.100;2023-03-14T01:38:53;17.60;;;2.92;;
58842;SDS011;44614;54.356;10.100;2023-03-14T01:41:20;9.43;;;2.05;;
58842;SDS011;44614;54.356;10.100;2023-03-14T01:43:47;14.23;;;2.45;;
58842;SDS011;44614;54.356;10.100;2023-03-14T01:46:28;9.82;;;2.40;;
58842;SDS011;44614;54.356;10.100;2023-03-14T01:49:00;15.95;;;2.25;;
58842;SDS011;44614;54.356;10.100;2023-03-14T01:51:36;10.30;;;1.90;;
58842;SDS011;44614;54.356;10.100;2023-03-14T01:54:10;17.15;;;2.75;;
58842;SDS011;44614;54.356;10.100;2023-03-14T01:56:40;8.10;;;1.58;;
58842;SDS011;44614;54.356;10.100;2023-03-14T01:59:09;9.60;;;1.98;;
58842;SDS011;44614;54.356;10.100;2023-03-14T02:01:35;15.48;;;2.92;;
58842;SDS011;44614;54.356;10.100;2023-03-14T02:04:02;14.10;;;2.35;;
58842;SDS011;44614;54.356;10.100;2023-03-14T02:09:27;13.52;;;2.10;;
58842;SDS011;44614;54.356;10.100;2023-03-14T02:11:55;11.43;;;2.33;;
58842;SDS011;44614;54.356;10.100;2023-03-14T02:14:31;7.38;;;1.80;;
58842;SDS011;44614;54.356;10.100;2023-03-14T02:19:47;16.88;;;2.75;;
58842;SDS011;44614;54.356;10.100;2023-03-14T02:22:25;6.63;;;2.25;;
58842;SDS011;44614;54.356;10.100;2023-03-14T02:27:24;8.73;;;1.77;;
58842;SDS011;44614;54.356;10.100;2023-03-14T02:29:55;10.47;;;2.60;;
58842;SDS011;44614;54.356;10.100;2023-03-14T02:32:24;10.55;;;1.95;;
58842;SDS011;44614;54.356;10.100;2023-03-14T02:34:52;10.73;;;1.98;;
58842;SDS011;44614;54.356;10.100;2023-03-14T02:37:22;12.85;;;1.77;;
58842;SDS011;44614;54.356;10.100;2023-03-14T02:39:52;17.33;;;2.83;;
58842;SDS011;44614;54.356;10.100;2023-03-14T02:42:17;4.72;;;1.73;;
58842;SDS011;44614;54.356;10.100;2023-03-14T02:44:53;9.80;;;3.28;;
58842;SDS011;44614;54.356;10.100;2023-03-14T02:47:28;6.35;;;2.05;;
58842;SDS011;44614;54.356;10.100;2023-03-14T02:49:58;15.18;;;2.13;;
58842;SDS011;44614;54.356;10.100;2023-03-14T02:52:26;16.08;;;2.38;;
58842;SDS011;44614;54.356;10.100;2023-03-14T02:54:52;8.73;;;2.00;;
58842;SDS011;44614;54.356;10.100;2023-03-14T02:57:17;11.63;;;2.15;;
58842;SDS011;44614;54.356;10.100;2023-03-14T02:59:43;6.13;;;1.73;;
58842;SDS011;44614;54.356;10.100;2023-03-14T03:02:08;15.77;;;2.17;;
58842;SDS011;44614;54.356;10.100;2023-03-14T03:04:33;10.07;;;2.10;;
58842;SDS011;44614;54.356;10.100;2023-03-14T03:06:58;12.45;;;2.00;;
58842;SDS011;44614;54.356;10.100;2023-03-14T03:09:24;16.37;;;3.23;;
58842;SDS011;44614;54.356;10.100;2023-03-14T03:11:49;12.30;;;2.13;;
58842;SDS011;44614;54.356;10.100;2023-03-14T03:14:14;19.67;;;2.22;;
58842;SDS011;44614;54.356;10.100;2023-03-14T03:16:40;9.13;;;2.30;;
58842;SDS011;44614;54.356;10.100;2023-03-14T03:19:05;10.60;;;2.20;;
58842;SDS011;44614;54.356;10.100;2023-03-14T03:21:30;5.38;;;2.33;;
58842;SDS011;44614;54.356;10.100;2023-03-14T03:23:56;6.70;;;1.93;;
58842;SDS011;44614;54.356;10.100;2023-03-14T03:26:21;9.60;;;2.30;;
58842;SDS011;44614;54.356;10.100;2023-03-14T03:28:46;5.55;;;2.15;;
58842;SDS011;44614;54.356;10.100;2023-03-14T03:31:12;7.50;;;2.03;;
58842;SDS011;44614;54.356;10.100;2023-03-14T03:33:37;12.20;;;2.28;;
58842;SDS011;44614;54.356;10.100;2023-03-14T03:36:03;10.37;;;2.20;;
58842;SDS011;44614;54.356;10.100;2023-03-14T03:38:29;6.15;;;1.60;;
58842;SDS011;44614;54.356;10.100;2023-03-14T03:40:54;11.98;;;2.55;;
58842;SDS011;44614;54.356;10.100;2023-03-14T03:43:20;6.03;;;1.85;;
58842;SDS011;44614;54.356;10.100;2023-03-14T03:45:45;10.50;;;2.05;;
58842;SDS011;44614;54.356;10.100;2023-03-14T03:48:10;10.60;;;1.83;;
58842;SDS011;44614;54.356;10.100;2023-03-14T03:50:35;7.97;;;2.00;;
58842;SDS011;44614;54.356;10.100;2023-03-14T03:53:02;8.52;;;1.40;;
58842;SDS011;44614;54.356;10.100;2023-03-14T03:55:27;6.22;;;2.08;;
58842;SDS011;44614;54.356;10.100;2023-03-14T03:57:53;6.85;;;2.55;;
58842;SDS011;44614;54.356;10.100;2023-03-14T04:00:18;13.70;;;2.47;;
58842;SDS011;44614;54.356;10.100;2023-03-14T04:02:44;6.30;;;2.53;;
58842;SDS011;44614;54.356;10.100;2023-03-14T04:05:09;7.90;;;2.83;;
58842;SDS011;44614;54.356;10.100;2023-03-14T04:07:35;12.65;;;2.17;;
58842;SDS011;44614;54.356;10.100;2023-03-14T04:10:00;9.07;;;2.47;;
58842;SDS011;44614;54.356;10.100;2023-03-14T04:12:25;7.97;;;2.70;;
58842;SDS011;44614;54.356;10.100;2023-03-14T04:14:51;6.53;;;2.53;;
58842;SDS011;44614;54.356;10.100;2023-03-14T04:17:16;13.48;;;2.75;;
58842;SDS011;44614;54.356;10.100;2023-03-14T04:19:41;9.05;;;2.40;;
58842;SDS011;44614;54.356;10.100;2023-03-14T04:22:07;6.85;;;2.90;;
58842;SDS011;44614;54.356;10.100;2023-03-14T04:24:33;9.57;;;2.78;;
58842;SDS011;44614;54.356;10.100;2023-03-14T04:26:59;11.85;;;3.35;;
58842;SDS011;44614;54.356;10.100;2023-03-14T04:29:24;8.65;;;2.40;;
58842;SDS011;44614;54.356;10.100;2023-03-14T04:31:49;13.57;;;2.70;;
58842;SDS011;44614;54.356;10.100;2023-03-14T04:34:15;6.32;;;1.52;;
58842;SDS011;44614;54.356;10.100;2023-03-14T04:36:40;7.50;;;2.40;;
58842;SDS011;44614;54.356;10.100;2023-03-14T04:39:06;4.40;;;1.83;;
58842;SDS011;44614;54.356;10.100;2023-03-14T04:41:32;8.32;;;1.90;;
58842;SDS011;44614;54.356;10.100;2023-03-14T04:43:57;4.18;;;1.55;;
58842;SDS011;44614;54.356;10.100;2023-03-14T04:46:23;3.47;;;1.70;;
58842;SDS011;44614;54.356;10.100;2023-03-14T04:48:49;6.07;;;1.77;;
58842;SDS011;44614;54.356;10.100;2023-03-14T04:51:14;6.50;;;1.97;;
58842;SDS011;44614;54.356;10.100;2023-03-14T04:53:39;7.57;;;3.13;;
58842;SDS011;44614;54.356;10.100;2023-03-14T04:56:05;6.93;;;2.03;;
58842;SDS011;44614;54.356;10.100;2023-03-14T04:58:31;4.22;;;1.65;;
58842;SDS011;44614;54.356;10.100;2023-03-14T05:01:00;1.98;;;1.00;;
58842;SDS011;44614;54.356;10.100;2023-03-14T05:03:26;7.03;;;1.75;;
58842;SDS011;44614;54.356;10.100;2023-03-14T05:05:52;7.13;;;1.83;;
58842;SDS011;44614;54.356;10.100;2023-03-14T05:08:17;7.22;;;1.63;;
58842;SDS011;44614;54.356;10.100;2023-03-14T05:10:42;4.50;;;1.48;;
58842;SDS011;44614;54.356;10.100;2023-03-14T05:13:08;6.30;;;1.73;;
58842;SDS011;44614;54.356;10.100;2023-03-14T05:15:33;7.77;;;1.53;;
58842;SDS011;44614;54.356;10.100;2023-03-14T05:17:58;6.55;;;1.55;;
58842;SDS011;44614;54.356;10.100;2023-03-14T05:20:23;9.52;;;1.75;;
58842;SDS011;44614;54.356;10.100;2023-03-14T05:22:49;3.60;;;1.85;;
58842;SDS011;44614;54.356;10.100;2023-03-14T05:25:14;4.95;;;1.33;;
58842;SDS011;44614;54.356;10.100;2023-03-14T05:27:39;3.53;;;1.13;;
58842;SDS011;44614;54.356;10.100;2023-03-14T05:30:05;9.30;;;1.77;;
58842;SDS011;44614;54.356;10.100;2023-03-14T05:32:31;8.87;;;2.13;;
58842;SDS011;44614;54.356;10.100;2023-03-14T05:34:57;7.82;;;1.30;;
58842;SDS011;44614;54.356;10.100;2023-03-14T05:37:24;2.80;;;1.05;;
58842;SDS011;44614;54.356;10.100;2023-03-14T05:39:50;3.75;;;1.50;;
58842;SDS011;44614;54.356;10.100;2023-03-14T05:42:15;4.38;;;1.90;;
58842;SDS011;44614;54.356;10.100;2023-03-14T05:44:41;2.67;;;1.10;;
58842;SDS011;44614;54.356;10.100;2023-03-14T05:47:06;3.57;;;1.13;;
58842;SDS011;44614;54.356;10.100;2023-03-14T05:49:31;9.00;;;1.42;;
58842;SDS011;44614;54.356;10.100;2023-03-14T05:51:57;1.88;;;0.93;;
58842;SDS011;44614;54.356;10.100;2023-03-14T05:54:22;5.78;;;1.10;;
58842;SDS011;44614;54.356;10.100;2023-03-14T05:56:47;9.02;;;3.90;;
58842;SDS011;44614;54.356;10.100;2023-03-14T05:59:13;1.77;;;1.13;;
58842;SDS011;44614;54.356;10.100;2023-03-14T06:01:40;5.63;;;1.38;;
58842;SDS011;44614;54.356;10.100;2023-03-14T06:04:05;6.32;;;1.30;;
58842;SDS011;44614;54.356;10.100;2023-03-14T06:06:30;3.05;;;1.10;;
58842;SDS011;44614;54.356;10.100;2023-03-14T06:08:56;5.80;;;1.30;;
58842;SDS011;44614;54.356;10.100;2023-03-14T06:11:21;2.60;;;1.23;;
58842;SDS011;44614;54.356;10.100;2023-03-14T06:13:46;5.18;;;1.23;;
58842;SDS011;44614;54.356;10.100;2023-03-14T06:16:12;6.23;;;1.30;;
58842;SDS011;44614;54.356;10.100;2023-03-14T06:18:38;5.57;;;1.40;;
58842;SDS011;44614;54.356;10.100;2023-03-14T06:21:03;4.63;;;1.05;;
58842;SDS011;44614;54.356;10.100;2023-03-14T06:23:29;4.88;;;1.40;;
58842;SDS011;44614;54.356;10.100;2023-03-14T06:25:55;5.78;;;1.58;;
58842;SDS011;44614;54.356;10.100;2023-03-14T06:28:20;3.85;;;1.73;;
58842;SDS011;44614;54.356;10.100;2023-03-14T06:30:46;9.60;;;1.70;;
58842;SDS011;44614;54.356;10.100;2023-03-14T06:33:11;4.35;;;1.63;;
58842;SDS011;44614;54.356;10.100;2023-03-14T06:35:36;2.17;;;1.00;;
58842;SDS011;44614;54.356;10.100;2023-03-14T06:38:02;4.90;;;1.55;;
58842;SDS011;44614;54.356;10.100;2023-03-14T06:40:27;9.30;;;1.98;;
58842;SDS011;44614;54.356;10.100;2023-03-14T06:42:53;3.47;;;1.33;;
58842;SDS011;44614;54.356;10.100;2023-03-14T06:45:18;7.90;;;2.57;;
58842;SDS011;44614;54.356;10.100;2023-03-14T06:47:43;5.70;;;2.15;;
58842;SDS011;44614;54.356;10.100;2023-03-14T06:50:09;4.68;;;1.85;;
58842;SDS011;44614;54.356;10.100;2023-03-14T06:52:35;4.53;;;1.67;;
58842;SDS011;44614;54.356;10.100;2023-03-14T06:55:00;7.10;;;2.65;;
58842;SDS011;44614;54.356;10.100;2023-03-14T06:57:26;5.03;;;2.00;;
58842;SDS011;44614;54.356;10.100;2023-03-14T06:59:51;5.37;;;2.20;;
58842;SDS011;44614;54.356;10.100;2023-03-14T07:02:16;9.93;;;2.37;;
58842;SDS011;44614;54.356;10.100;2023-03-14T07:04:42;7.17;;;1.83;;
58842;SDS011;44614;54.356;10.100;2023-03-14T07:07:07;3.77;;;1.63;;
58842;SDS011;44614;54.356;10.100;2023-03-14T07:09:33;5.00;;;2.03;;
58842;SDS011;44614;54.356;10.100;2023-03-14T07:11:59;6.67;;;1.70;;
58842;SDS011;44614;54.356;10.100;2023-03-14T07:14:25;5.70;;;2.65;;
58842;SDS011;44614;54.356;10.100;2023-03-14T07:16:50;7.15;;;1.67;;
58842;SDS011;44614;54.356;10.100;2023-03-14T07:19:16;5.25;;;2.45;;
58842;SDS011;44614;54.356;10.100;2023-03-14T07:21:41;4.15;;;1.50;;
58842;SDS011;44614;54.356;10.100;2023-03-14T07:24:07;7.47;;;2.47;;
58842;SDS011;44614;54.356;10.100;2023-03-14T07:26:32;2.92;;;1.55;;
58842;SDS011;44614;54.356;10.100;2023-03-14T07:28:57;4.85;;;1.77;;
58842;SDS011;44614;54.356;10.100;2023-03-14T07:31:23;7.32;;;1.73;;
58842;SDS011;44614;54.356;10.100;2023-03-14T07:33:48;6.60;;;1.83;;
58842;SDS011;44614;54.356;10.100;2023-03-14T07:36:14;5.32;;;1.45;;
58842;SDS011;44614;54.356;10.100;2023-03-14T07:38:39;4.30;;;1.88;;
58842;SDS011;44614;54.356;10.100;2023-03-14T07:41:05;2.88;;;1.63;;
58842;SDS011;44614;54.356;10.100;2023-03-14T07:43:31;3.75;;;1.88;;
58842;SDS011;44614;54.356;10.100;2023-03-14T07:45:57;5.18;;;2.05;;
58842;SDS011;44614;54.356;10.100;2023-03-14T07:48:22;7.63;;;1.85;;
58842;SDS011;44614;54.356;10.100;2023-03-14T07:50:53;4.22;;;1.60;;
58842;SDS011;44614;54.356;10.100;2023-03-14T07:53:20;7.80;;;1.17;;
58842;SDS011;44614;54.356;10.100;2023-03-14T07:55:46;5.30;;;1.65;;
58842;SDS011;44614;54.356;10.100;2023-03-14T07:58:12;5.03;;;1.30;;
58842;SDS011;44614;54.356;10.100;2023-03-14T08:00:37;2.75;;;1.17;;
58842;SDS011;44614;54.356;10.100;2023-03-14T08:03:03;2.70;;;1.80;;
58842;SDS011;44614;54.356;10.100;2023-03-14T08:05:28;9.07;;;1.45;;
58842;SDS011;44614;54.356;10.100;2023-03-14T08:07:53;1.75;;;1.33;;
58842;SDS011;44614;54.356;10.100;2023-03-14T08:10:19;2.90;;;1.23;;
58842;SDS011;44614;54.356;10.100;2023-03-14T08:12:50;8.52;;;1.92;;
58842;SDS011;44614;54.356;10.100;2023-03-14T08:15:18;6.68;;;1.73;;
58842;SDS011;44614;54.356;10.100;2023-03-14T08:17:43;5.60;;;1.70;;
58842;SDS011;44614;54.356;10.100;2023-03-14T08:20:09;3.13;;;1.20;;
58842;SDS011;44614;54.356;10.100;2023-03-14T08:22:36;4.05;;;1.45;;
58842;SDS011;44614;54.356;10.100;2023-03-14T08:25:01;3.83;;;1.30;;
58842;SDS011;44614;54.356;10.100;2023-03-14T08:27:27;6.70;;;2.08;;
58842;SDS011;44614;54.356;10.100;2023-03-14T08:29:52;5.35;;;1.52;;
58842;SDS011;44614;54.356;10.100;2023-03-14T08:32:18;5.78;;;1.80;;
58842;SDS011;44614;54.356;10.100;2023-03-14T08:34:45;2.40;;;1.40;;
58842;SDS011;44614;54.356;10.100;2023-03-14T08:37:10;4.78;;;1.75;;
58842;SDS011;44614;54.356;10.100;2023-03-14T08:39:35;6.03;;;2.15;;
58842;SDS011;44614;54.356;10.100;2023-03-14T08:42:01;8.60;;;1.75;;
58842;SDS011;44614;54.356;10.100;2023-03-14T08:44:26;8.30;;;2.20;;
58842;SDS011;44614;54.356;10.100;2023-03-14T08:46:51;1.87;;;0.90;;
58842;SDS011;44614;54.356;10.100;2023-03-14T08:49:16;3.83;;;1.63;;
58842;SDS011;44614;54.356;10.100;2023-03-14T08:51:42;1.05;;;0.47;;
58842;SDS011;44614;54.356;10.100;2023-03-14T08:54:09;0.60;;;0.32;;
58842;SDS011;44614;54.356;10.100;2023-03-14T08:56:35;0.40;;;0.10;;
58842;SDS011;44614;54.356;10.100;2023-03-14T08:59:02;2.30;;;0.20;;
58842;SDS011;44614;54.356;10.100;2023-03-14T09:01:28;0.10;;;0.10;;
58842;SDS011;44614;54.356;10.100;2023-03-14T09:03:53;0.10;;;0.10;;
58842;SDS011;44614;54.356;10.100;2023-03-14T09:06:19;2.90;;;0.45;;
58842;SDS011;44614;54.356;10.100;2023-03-14T09:08:44;3.25;;;0.40;;
58842;SDS011;44614;54.356;10.100;2023-03-14T09:11:10;0.77;;;0.50;;
58842;SDS011;44614;54.356;10.100;2023-03-14T09:13:36;0.20;;;0.20;;
58842;SDS011;44614;54.356;10.100;2023-03-14T09:16:02;0.30;;;0.30;;
58842;SDS011;44614;54.356;10.100;2023-03-14T09:18:27;1.15;;;0.30;;
58842;SDS011;44614;54.356;10.100;2023-03-14T09:20:53;3.15;;;0.90;;
58842;SDS011;44614;54.356;10.100;2023-03-14T09:23:20;1.95;;;0.40;;
58842;SDS011;44614;54.356;10.100;2023-03-14T09:25:46;1.23;;;0.55;;
58842;SDS011;44614;54.356;10.100;2023-03-14T09:28:11;1.33;;;0.52;;
58842;SDS011;44614;54.356;10.100;2023-03-14T09:30:37;6.15;;;0.63;;
58842;SDS011;44614;54.356;10.100;2023-03-14T09:33:02;1.02;;;0.50;;
58842;SDS011;44614;54.356;10.100;2023-03-14T09:35:28;1.48;;;0.70;;
58842;SDS011;44614;54.356;10.100;2023-03-14T09:37:53;0.82;;;0.40;;
58842;SDS011;44614;54.356;10.100;2023-03-14T09:40:19;1.15;;;0.40;;
58842;SDS011;44614;54.356;10.100;2023-03-14T09:42:50;2.65;;;0.50;;
58842;SDS011;44614;54.356;10.100;2023-03-14T09:45:34;2.42;;;0.73;;
58842;SDS011;44614;54.356;10.100;2023-03-14T09:48:02;1.42;;;0.28;;
58842;SDS011;44614;54.356;10.100;2023-03-14T09:53:18;1.23;;;0.65;;
58842;SDS011;44614;54.356;10.100;2023-03-14T09:55:47;1.55;;;0.68;;
58842;SDS011;44614;54.356;10.100;2023-03-14T09:58:16;1.50;;;0.43;;
58842;SDS011;44614;54.356;10.100;2023-03-14T10:00:44;2.17;;;0.55;;
58842;SDS011;44614;54.356;10.100;2023-03-14T10:05:38;1.35;;;0.30;;
58842;SDS011;44614;54.356;10.100;2023-03-14T10:08:10;1.30;;;0.47;;
58842;SDS011;44614;54.356;10.100;2023-03-14T10:10:37;3.92;;;0.63;;
58842;SDS011;44614;54.356;10.100;2023-03-14T10:15:34;1.00;;;0.55;;
58842;SDS011;44614;54.356;10.100;2023-03-14T10:18:02;0.43;;;0.40;;
58842;SDS011;44614;54.356;10.100;2023-03-14T10:23:06;1.63;;;0.60;;
58842;SDS011;44614;54.356;10.100;2023-03-14T10:28:53;2.67;;;0.40;;
58842;SDS011;44614;54.356;10.100;2023-03-14T10:31:26;0.88;;;0.57;;
58842;SDS011;44614;54.356;10.100;2023-03-14T10:33:58;1.35;;;0.60;;
58842;SDS011;44614;54.356;10.100;2023-03-14T10:36:33;1.60;;;0.60;;
58842;SDS011;44614;54.356;10.100;2023-03-14T10:41:47;2.72;;;0.43;;
58842;SDS011;44614;54.356;10.100;2023-03-14T10:44:15;4.90;;;1.80;;
58842;SDS011;44614;54.356;10.100;2023-03-14T10:46:45;2.92;;;0.63;;
58842;SDS011;44614;54.356;10.100;2023-03-14T10:49:22;2.10;;;0.60;;
58842;SDS011;44614;54.356;10.100;2023-03-14T10:51:52;2.92;;;0.65;;
58842;SDS011;44614;54.356;10.100;2023-03-14T10:54:21;1.70;;;0.65;;
58842;SDS011;44614;54.356;10.100;2023-03-14T10:56:58;1.33;;;0.75;;
58842;SDS011;44614;54.356;10.100;2023-03-14T10:59:27;3.83;;;0.70;;
58842;SDS011;44614;54.356;10.100;2023-03-14T11:10:51;1.77;;;0.52;;
58842;SDS011;44614;54.356;10.100;2023-03-14T11:13:53;3.60;;;0.77;;
58842;SDS011;44614;54.356;10.100;2023-03-14T11:28:09;5.13;;;1.08;;
58842;SDS011;44614;54.356;10.100;2023-03-14T11:30:55;8.25;;;1.30;;
58842;SDS011;44614;54.356;10.100;2023-03-14T11:36:15;1.73;;;0.50;;
58842;SDS011;44614;54.356;10.100;2023-03-14T11:38:47;1.15;;;1.02;;
58842;SDS011;44614;54.356;10.100;2023-03-14T11:41:32;6.65;;;1.17;;
58842;SDS011;44614;54.356;10.100;2023-03-14T11:44:02;4.10;;;1.27;;
58842;SDS011;44614;54.356;10.100;2023-03-14T11:46:41;8.88;;;1.20;;
58842;SDS011;44614;54.356;10.100;2023-03-14T11:49:14;9.95;;;1.65;;
58842;SDS011;44614;54.356;10.100;2023-03-14T11:51:41;5.40;;;1.58;;
58842;SDS011;44614;54.356;10.100;2023-03-14T11:57:03;8.35;;;1.38;;
58842;SDS011;44614;54.356;10.100;2023-03-14T11:59:38;14.05;;;1.90;;
58842;SDS011;44614;54.356;10.100;2023-03-14T12:10:25;1.00;;;0.30;;
58842;SDS011;44614;54.356;10.100;2023-03-14T12:12:51;5.15;;;0.85;;
58842;SDS011;44614;54.356;10.100;2023-03-14T12:15:18;6.57;;;1.52;;
58842;SDS011;44614;54.356;10.100;2023-03-14T12:17:46;3.75;;;0.68;;
58842;SDS011;44614;54.356;10.100;2023-03-14T12:20:19;4.40;;;0.88;;
58842;SDS011;44614;54.356;10.100;2023-03-14T12:22:48;4.57;;;1.08;;
58842;SDS011;44614;54.356;10.100;2023-03-14T12:25:17;4.97;;;1.23;;
58842;SDS011;44614;54.356;10.100;2023-03-14T12:27:49;7.43;;;1.05;;
58842;SDS011;44614;54.356;10.100;2023-03-14T12:30:34;3.53;;;0.88;;
58842;SDS011;44614;54.356;10.100;2023-03-14T12:38:28;5.88;;;1.13;;
58842;SDS011;44614;54.356;10.100;2023-03-14T12:46:53;17.50;;;1.67;;
58842;SDS011;44614;54.356;10.100;2023-03-14T12:49:18;1.90;;;0.88;;
58842;SDS011;44614;54.356;10.100;2023-03-14T12:51:44;7.10;;;1.17;;
58842;SDS011;44614;54.356;10.100;2023-03-14T12:54:13;6.05;;;1.33;;
58842;SDS011;44614;54.356;10.100;2023-03-14T13:02:01;6.35;;;1.83;;
58842;SDS011;44614;54.356;10.100;2023-03-14T13:04:34;7.63;;;1.70;;
58842;SDS011;44614;54.356;10.100;2023-03-14T13:07:28;3.22;;;0.95;;
58842;SDS011;44614;54.356;10.100;2023-03-14T13:10:04;8.82;;;1.25;;
58842;SDS011;44614;54.356;10.100;2023-03-14T13:13:17;11.63;;;1.58;;
58842;SDS011;44614;54.356;10.100;2023-03-14T13:15:31;3.20;;;1.58;;
58842;SDS011;44614;54.356;10.100;2023-03-14T13:18:07;6.85;;;1.50;;
58842;SDS011;44614;54.356;10.100;2023-03-14T13:20:46;5.10;;;0.85;;
58842;SDS011;44614;54.356;10.100;2023-03-14T13:23:53;5.70;;;1.02;;
58842;SDS011;44614;54.356;10.100;2023-03-14T13:26:20;6.97;;;1.08;;
58842;SDS011;44614;54.356;10.100;2023-03-14T13:28:45;4.53;;;1.10;;
58842;SDS011;44614;54.356;10.100;2023-03-14T13:31:18;5.25;;;1.27;;
58842;SDS011;44614;54.356;10.100;2023-03-14T13:33:56;2.70;;;0.88;;
58842;SDS011;44614;54.356;10.100;2023-03-14T13:36:26;7.78;;;0.88;;
58842;SDS011;44614;54.356;10.100;2023-03-14T13:38:56;23.13;;;1.17;;
58842;SDS011;44614;54.356;10.100;2023-03-14T13:41:27;2.95;;;0.80;;
58842;SDS011;44614;54.356;10.100;2023-03-14T13:43:56;4.28;;;0.75;;
58842;SDS011;44614;54.356;10.100;2023-03-14T13:46:27;6.63;;;0.80;;
58842;SDS011;44614;54.356;10.100;2023-03-14T13:48:59;2.83;;;1.70;;
58842;SDS011;44614;54.356;10.100;2023-03-14T13:51:27;3.40;;;1.23;;
58842;SDS011;44614;54.356;10.100;2023-03-14T13:53:56;9.23;;;1.77;;
58842;SDS011;44614;54.356;10.100;2023-03-14T13:56:24;7.10;;;1.08;;
58842;SDS011;44614;54.356;10.100;2023-03-14T13:58:51;6.47;;;0.77;;
58842;SDS011;44614;54.356;10.100;2023-03-14T14:01:22;3.40;;;0.55;;
58842;SDS011;44614;54.356;10.100;2023-03-14T14:03:57;4.15;;;0.93;;
58842;SDS011;44614;54.356;10.100;2023-03-14T14:08:59;3.45;;;0.90;;
58842;SDS011;44614;54.356;10.100;2023-03-14T14:11:33;2.88;;;0.75;;
58842;SDS011;44614;54.356;10.100;2023-03-14T14:14:04;1.20;;;0.50;;
58842;SDS011;44614;54.356;10.100;2023-03-14T14:16:33;2.88;;;0.38;;
58842;SDS011;44614;54.356;10.100;2023-03-14T14:18:59;2.60;;;1.35;;
58842;SDS011;44614;54.356;10.100;2023-03-14T14:21:25;5.60;;;0.70;;
58842;SDS011;44614;54.356;10.100;2023-03-14T14:23:51;5.53;;;1.08;;
58842;SDS011;44614;54.356;10.100;2023-03-14T14:26:18;2.78;;;2.05;;
58842;SDS011;44614;54.356;10.100;2023-03-14T14:33:43;7.50;;;0.77;;
58842;SDS011;44614;54.356;10.100;2023-03-14T14:41:41;3.20;;;0.73;;
58842;SDS011;44614;54.356;10.100;2023-03-14T14:44:10;3.28;;;0.90;;
58842;SDS011;44614;54.356;10.100;2023-03-14T14:46:37;4.60;;;0.65;;
58842;SDS011;44614;54.356;10.100;2023-03-14T14:49:10;4.40;;;1.15;;
58842;SDS011;44614;54.356;10.100;2023-03-14T14:51:43;4.00;;;0.50;;
58842;SDS011;44614;54.356;10.100;2023-03-14T14:54:13;1.63;;;0.82;;
58842;SDS011;44614;54.356;10.100;2023-03-14T14:56:48;4.97;;;1.13;;
58842;SDS011;44614;54.356;10.100;2023-03-14T14:59:24;9.65;;;1.10;;
58842;SDS011;44614;54.356;10.100;2023-03-14T15:01:55;2.20;;;0.93;;
58842;SDS011;44614;54.356;10.100;2023-03-14T15:04:25;2.45;;;1.02;;
58842;SDS011;44614;54.356;10.100;2023-03-14T15:06:51;0.88;;;0.47;;
58842;SDS011;44614;54.356;10.100;2023-03-14T15:09:17;8.35;;;1.10;;
58842;SDS011;44614;54.356;10.100;2023-03-14T15:11:43;5.20;;;0.93;;
58842;SDS011;44614;54.356;10.100;2023-03-14T15:14:08;5.40;;;1.65;;
58842;SDS011;44614;54.356;10.100;2023-03-14T15:16:34;3.30;;;1.15;;
58842;SDS011;44614;54.356;10.100;2023-03-14T15:19:00;5.75;;;0.85;;
58842;SDS011;44614;54.356;10.100;2023-03-14T15:21:30;3.78;;;2.05;;
58842;SDS011;44614;54.356;10.100;2023-03-14T15:23:56;7.43;;;0.98;;
58842;SDS011;44614;54.356;10.100;2023-03-14T15:26:25;5.38;;;1.05;;
58842;SDS011;44614;54.356;10.100;2023-03-14T15:28:52;7.47;;;1.30;;
58842;SDS011;44614;54.356;10.100;2023-03-14T15:31:18;2.33;;;1.03;;
58842;SDS011;44614;54.356;10.100;2023-03-14T15:33:46;3.00;;;0.75;;
58842;SDS011;44614;54.356;10.100;2023-03-14T15:36:22;8.82;;;0.93;;
58842;SDS011;44614;54.356;10.100;2023-03-14T15:38:48;4.03;;;0.90;;
58842;SDS011;44614;54.356;10.100;2023-03-14T15:41:15;11.07;;;1.73;;
58842;SDS011;44614;54.356;10.100;2023-03-14T15:43:40;3.58;;;1.58;;
58842;SDS011;44614;54.356;10.100;2023-03-14T15:46:08;3.75;;;0.70;;
58842;SDS011;44614;54.356;10.100;2023-03-14T15:48:34;2.38;;;0.93;;
58842;SDS011;44614;54.356;10.100;2023-03-14T15:51:00;4.32;;;1.63;;
58842;SDS011;44614;54.356;10.100;2023-03-14T15:53:25;9.30;;;1.20;;
58842;SDS011;44614;54.356;10.100;2023-03-14T15:55:50;5.80;;;1.23;;
58842;SDS011;44614;54.356;10.100;2023-03-14T15:58:16;2.45;;;0.90;;
58842;SDS011;44614;54.356;10.100;2023-03-14T16:00:43;5.53;;;0.93;;
58842;SDS011;44614;54.356;10.100;2023-03-14T16:03:08;7.70;;;1.30;;
58842;SDS011;44614;54.356;10.100;2023-03-14T16:05:34;6.97;;;1.30;;